Aransas Pass, TX (78336)

1:27 AM CST on January 18, 2017 (GMT -0600)
Gas Lite Village | | Change Station

Elev 18 ft 27.92 °N, 97.16 °W | Updated 1 second ago

Overcast
Overcast
70.2 °F
Feels Like 70.2 °F
N
6.2
Wind Variable Wind from SSE
Gusts 6.9 mph

Today
High -- | Low -- °F
--% Chance of Precip.
Yesterday
High -- | Low -- °F
Precip. -- in
Pressure 29.99 in
Visibility 1.0 miles
Clouds Overcast 100 ft
Dew Point 70 °F
Humidity 100%
Rainfall 0.00 in
Snow Depth Not available.
7:20 AM 5:57 PM
Waning Gibbous, 65% visible
METAR KTFP 180715Z AUTO 16012KT 1SM BR OVC001 22/21 A2999 RMK AO2 T02200214
Pressure 29.99 in
Visibility 1.0 miles
Clouds Overcast 100 ft
Dew Point 70 °F
Humidity 100%
Rainfall 0.00 in
Snow Depth Not available.
7:20 AM 5:57 PM
Waning Gibbous, 65% visible
METAR KTFP 180715Z AUTO 16012KT 1SM BR OVC001 22/21 A2999 RMK AO2 T02200214

Get Your Daily Forecast Email!

Thanks for signing up!

Be on the lookout for a verification email in your inbox.

You'll start receiving the daily forecast at 8 AM.

×

10-Day Weather Forecast

Almanac

Astronomy

Jan. 18, 2017 Rise Set
Actual Time
Civil Twilight
Nautical Twilight
Astronomical Twilight
Moon
Length of Visible Light
Length of Day
Tomorrow will be .
, % of the Moon is Illuminated

Today's Extremes

State Highs State Lows

Community

WunderPhotos

Upload Photos

1,962,540 photos uploaded!

WunderBlog® & News

Nearby

Air Quality

  Air Quality AQ Index Pollutant
Not available.

Snow Depth

Station Depth Elevation

Earthquake Activity

City Distance Mag. Time & Date
Minimum magnitude displayed is 2.5.

Coastal Water Temperatures

Place Temperature

Stations

Nearby Weather Stations

Station Location Temp. Windchill Dew Point Humidity Wind Precip. Elev Updated Type
                   

Watches & Warnings

There are currently no watches in effect.